Time;durP1;ratioP1;P1;durP2;ratioP2;P2;SDS_P1;SDS_P2;PMS_P1;PMS_P2;Temp;Humidity;BMP_temperature;BMP_pressure;BME280_temperature;BME280_humidity;BME280_pressure;Samples;Min_cycle;Max_cycle;Signal;HPM_P1;HPM_P2
2021/06/28 00:00:04;;;;;;;;;6.50;5.50;;;;;23.33;59.64;100775.66;5074961;27;47805;-48
2021/06/28 00:02:32;;;;;;;;;9.00;9.00;;;;;23.32;59.86;100773.94;5070712;28;45408;-51
2021/06/28 00:04:57;;;;;;;;;7.00;7.00;;;;;23.30;59.98;100773.19;5058603;28;47064;-52
2021/06/28 00:07:23;;;;;;;;;7.00;6.25;;;;;23.31;60.26;100777.63;5076950;27;45398;-50
2021/06/28 00:09:48;;;;;;;;;8.33;8.00;;;;;23.31;60.05;100774.91;5070373;27;45657;-50
2021/06/28 00:12:14;;;;;;;;;6.00;5.50;;;;;23.30;60.16;100771.34;5072642;27;45965;-49
2021/06/28 00:14:39;;;;;;;;;6.00;6.00;;;;;23.30;59.82;100770.47;5070274;27;45298;-51
2021/06/28 00:17:05;;;;;;;;;7.50;7.50;;;;;23.30;60.23;100765.91;5074386;27;45550;-48
2021/06/28 00:19:30;;;;;;;;;7.00;7.00;;;;;23.33;60.17;100754.84;5064440;28;48352;-52
2021/06/28 00:21:56;;;;;;;;;5.25;5.25;;;;;23.34;60.04;100764.69;5066601;28;45390;-48
2021/06/28 00:24:21;;;;;;;;;7.00;7.00;;;;;23.35;60.83;100770.97;5076603;27;45472;-51
2021/06/28 00:26:47;;;;;;;;;7.50;7.50;;;;;23.35;60.52;100758.31;5072670;27;45567;-49
2021/06/28 00:29:13;;;;;;;;;7.50;7.50;;;;;23.35;60.26;100762.84;5057289;28;48047;-50
2021/06/28 00:31:39;;;;;;;;;7.25;6.75;;;;;23.35;60.50;100752.88;5059773;27;45325;-51
2021/06/28 00:34:05;;;;;;;;;6.25;6.25;;;;;23.36;59.99;100751.03;5070386;27;45959;-50
2021/06/28 00:36:31;;;;;;;;;7.25;6.00;;;;;23.35;60.23;100738.47;5058586;28;45477;-52
2021/06/28 00:38:57;;;;;;;;;7.00;7.00;;;;;23.34;60.06;100737.63;5062810;28;48708;-52
2021/06/28 00:41:24;;;;;;;;;8.25;8.00;;;;;23.36;60.49;100732.09;5056692;28;45541;-49
2021/06/28 00:43:50;;;;;;;;;8.00;8.00;;;;;23.35;60.30;100717.69;5058099;28;45570;-51
2021/06/28 00:46:16;;;;;;;;;6.00;6.00;;;;;23.33;60.15;100714.22;5070010;27;45579;-51
2021/06/28 00:48:42;;;;;;;;;6.00;6.00;;;;;23.33;60.35;100716.06;5059233;28;46410;-53
2021/06/28 00:51:07;;;;;;;;;7.50;6.75;;;;;23.31;60.81;100699.09;5060350;27;45805;-51
2021/06/28 00:53:33;;;;;;;;;6.00;6.00;;;;;23.30;60.41;100703.63;5061904;28;45420;-50
2021/06/28 00:56:11;;;;;;;;;7.00;6.33;;;;;23.30;60.55;100703.63;5073708;28;45501;-49
2021/06/28 00:58:41;;;;;;;;;5.00;5.00;;;;;23.30;60.78;100697.34;5069516;28;45451;-50
2021/06/28 01:01:07;;;;;;;;;7.00;5.33;;;;;23.30;60.61;100702.78;5077700;28;45649;-49
2021/06/28 01:03:33;;;;;;;;;6.67;4.33;;;;;23.29;60.06;100703.75;5080218;27;45305;-49
2021/06/28 01:06:00;;;;;;;;;6.00;5.00;;;;;23.28;60.78;100693.91;5075641;27;45722;-51
2021/06/28 01:08:27;;;;;;;;;5.33;5.33;;;;;23.28;60.47;100691.19;5060307;28;48430;-50
2021/06/28 01:10:53;;;;;;;;;6.67;5.33;;;;;23.27;60.74;100686.75;5064334;28;45598;-53
2021/06/28 01:13:19;;;;;;;;;6.67;6.67;;;;;23.24;60.50;100689.69;5051640;28;45491;-51
2021/06/28 01:15:45;;;;;;;;;6.00;6.00;;;;;23.22;60.79;100683.53;5068110;27;45235;-51
2021/06/28 01:18:10;;;;;;;;;5.25;5.25;;;;;23.19;61.01;100673.78;5082428;27;45282;-48
2021/06/28 01:20:37;;;;;;;;;6.75;6.75;;;;;23.19;60.76;100662.97;5062519;27;46150;-50
2021/06/28 01:23:22;;;;;;;;;7.75;7.75;;;;;23.20;61.00;100664.69;5060256;28;45587;-50
2021/06/28 01:25:56;;;;;;;;;6.50;6.00;;;;;23.22;61.39;100651.88;5078212;28;45582;-48
2021/06/28 01:28:22;;;;;;;;;8.33;7.00;;;;;23.24;60.95;100651.78;5078617;28;45797;-53
2021/06/28 01:30:50;;;;;;;;;5.33;5.33;;;;;23.26;60.97;100647.13;5078248;28;45479;-49
2021/06/28 01:33:16;;;;;;;;;5.25;5.25;;;;;23.27;60.87;100657.84;5076824;27;45372;-48
2021/06/28 01:35:42;;;;;;;;;6.00;6.00;;;;;23.30;60.69;100668.44;5077732;27;45477;-52
2021/06/28 01:38:09;;;;;;;;;7.33;7.33;;;;;23.32;60.32;100671.88;5079456;27;48178;-51
2021/06/28 01:40:38;;;;;;;;;6.33;6.33;;;;;23.32;60.35;100681.84;5079995;27;45480;-48
2021/06/28 01:43:04;;;;;;;;;6.00;6.00;;;;;23.31;60.77;100705.38;5065984;27;45290;-51
2021/06/28 01:45:30;;;;;;;;;6.67;6.67;;;;;23.30;60.54;100700.94;5075769;27;45493;-51
2021/06/28 01:47:59;;;;;;;;;5.00;5.00;;;;;23.29;60.47;100712.75;5071707;27;47914;-49
2021/06/28 01:50:30;;;;;;;;;7.75;6.75;;;;;23.29;60.64;100703.75;5077445;27;45467;-51
2021/06/28 01:52:56;;;;;;;;;4.75;4.75;;;;;23.27;60.91;100711.13;5079665;27;45714;-50
2021/06/28 01:55:22;;;;;;;;;6.00;6.00;;;;;23.28;60.90;100719.13;5079201;27;45477;-48
2021/06/28 01:57:57;;;;;;;;;6.50;6.50;;;;;23.27;60.67;100716.56;5076851;28;47213;-52
2021/06/28 02:00:25;;;;;;;;;4.25;4.25;;;;;23.26;60.71;100701.28;5062327;28;45621;-50
2021/06/28 02:02:57;;;;;;;;;6.25;6.25;;;;;23.26;60.97;100698.56;5076749;27;45549;-49
2021/06/28 02:05:25;;;;;;;;;7.75;6.50;;;;;23.27;60.84;100694.88;5059587;28;45382;-51
2021/06/28 02:07:51;;;;;;;;;6.50;6.50;;;;;23.28;60.75;100702.03;5075322;28;46696;-48
2021/06/28 02:10:17;;;;;;;;;5.00;5.00;;;;;23.30;61.01;100702.78;5079666;27;45316;-49
2021/06/28 02:12:43;;;;;;;;;6.75;6.50;;;;;23.33;60.76;100708.81;5068771;27;45681;-52
2021/06/28 02:15:20;;;;;;;;;7.00;7.00;;;;;23.34;60.56;100712.38;5078395;28;45587;-51
2021/06/28 02:17:45;;;;;;;;;7.00;7.00;;;;;23.34;60.55;100710.53;5078914;27;48393;-51
2021/06/28 02:20:11;;;;;;;;;4.75;4.25;;;;;23.34;60.42;100712.38;5064135;27;45569;-51
2021/06/28 02:22:41;;;;;;;;;5.75;5.75;;;;;23.32;60.22;100707.09;5059086;28;45673;-48
2021/06/28 02:25:08;;;;;;;;;3.00;3.00;;;;;23.27;59.55;100698.47;5076865;28;45555;-52
2021/06/28 02:27:34;;;;;;;;;2.67;2.67;;;;;23.21;59.06;100688.06;5074538;27;47331;-51
2021/06/28 02:30:00;;;;;;;;;1.67;1.67;;;;;23.18;59.05;100693.72;5072210;28;45486;-49
2021/06/28 02:32:26;;;;;;;;;2.00;2.00;;;;;23.13;59.39;100696.78;5079402;27;45344;-52
2021/06/28 02:34:51;;;;;;;;;2.33;2.33;;;;;23.10;58.35;100696.13;5077267;28;45511;-50
2021/06/28 02:37:17;;;;;;;;;2.75;2.75;;;;;23.06;58.91;100683.81;5079374;27;46260;-51
2021/06/28 02:39:42;;;;;;;;;1.00;1.00;;;;;23.04;58.28;100681.22;5078596;27;45672;-52
2021/06/28 02:42:08;;;;;;;;;1.00;1.00;;;;;23.02;58.57;100683.19;5079309;27;45370;-51
2021/06/28 02:44:33;;;;;;;;;1.00;1.00;;;;;23.01;58.60;100683.28;5077651;27;45581;-53
2021/06/28 02:46:59;;;;;;;;;2.67;1.67;;;;;22.99;58.91;100705.03;5081381;27;45475;-49
2021/06/28 02:49:24;;;;;;;;;2.00;2.00;;;;;22.99;58.94;100710.44;5075926;27;45753;-48
2021/06/28 02:51:50;;;;;;;;;2.67;1.67;;;;;22.99;58.70;100717.69;5078295;27;45283;-52
2021/06/28 02:54:15;;;;;;;;;1.67;1.00;;;;;23.00;58.17;100722.16;5068147;27;45484;-52
2021/06/28 02:56:41;;;;;;;;;1.00;1.00;;;;;22.99;58.41;100715.00;5077682;28;47303;-50
2021/06/28 02:59:09;;;;;;;;;2.00;1.00;;;;;22.99;58.30;100731.22;5073395;27;45244;-52
2021/06/28 03:01:34;;;;;;;;;1.00;1.00;;;;;22.99;58.01;100739.34;5074219;28;45798;-52
2021/06/28 03:04:00;;;;;;;;;1.33;1.33;;;;;22.97;57.72;100741.31;5071994;28;45400;-52
2021/06/28 03:06:25;;;;;;;;;3.00;1.00;;;;;22.94;58.07;100728.88;5073343;27;47110;-49
2021/06/28 03:08:51;;;;;;;;;0.00;0.00;;;;;22.94;58.43;100723.47;5071053;28;45448;-51
2021/06/28 03:11:20;;;;;;;;;0.00;0.00;;;;;22.96;58.54;100709.81;5070651;28;45545;-49
2021/06/28 03:13:47;;;;;;;;;0.00;0.00;;;;;22.97;58.40;100715.09;5069984;27;45491;-52
2021/06/28 03:16:13;;;;;;;;;0.00;0.00;;;;;22.97;58.16;100706.13;5093432;27;47405;-52
2021/06/28 03:18:39;;;;;;;;;1.00;1.00;;;;;22.96;58.09;100705.25;5074707;27;45552;-49
2021/06/28 03:21:07;;;;;;;;;1.00;1.00;;;;;22.95;57.71;100710.78;5078631;27;45397;-49
2021/06/28 03:23:33;;;;;;;;;1.00;1.00;;;;;22.93;57.50;100705.50;5077319;27;45300;-52
2021/06/28 03:25:59;;;;;;;;;1.00;1.00;;;;;22.90;58.02;100686.78;5087866;27;47516;-49
2021/06/28 03:28:25;;;;;;;;;1.67;1.33;;;;;22.88;58.10;100686.91;5072141;27;45598;-53
2021/06/28 03:30:52;;;;;;;;;1.00;1.00;;;;;22.87;58.16;100674.34;5057321;27;45497;-50
2021/06/28 03:33:18;;;;;;;;;1.00;1.00;;;;;22.87;57.95;100671.66;5077103;27;45302;-49
2021/06/28 03:35:43;;;;;;;;;1.00;1.00;;;;;22.85;58.19;100665.47;5064408;28;46873;-51
2021/06/28 03:38:09;;;;;;;;;2.00;2.00;;;;;22.85;58.42;100667.31;5070368;28;45700;-52
2021/06/28 03:40:35;;;;;;;;;1.33;1.33;;;;;22.84;58.00;100684.50;5078406;27;45383;-51
2021/06/28 03:43:04;;;;;;;;;1.00;1.00;;;;;22.81;57.96;100679.31;5076672;27;45869;-50
2021/06/28 03:45:30;;;;;;;;;1.00;1.00;;;;;22.77;58.22;100673.25;5067146;27;47548;-49
2021/06/28 03:47:56;;;;;;;;;1.00;1.00;;;;;22.74;58.32;100678.00;5082611;27;45337;-50
2021/06/28 03:50:21;;;;;;;;;1.00;1.00;;;;;22.73;57.99;100690.66;5059410;28;45330;-51
2021/06/28 03:52:47;;;;;;;;;2.00;2.00;;;;;22.71;58.25;100684.50;5058137;28;45309;-51
2021/06/28 03:55:12;;;;;;;;;1.67;1.67;;;;;22.70;57.80;100673.81;5057816;28;47255;-49
2021/06/28 03:57:38;;;;;;;;;1.67;1.67;;;;;22.68;58.21;100681.19;5073847;28;45478;-51
2021/06/28 04:00:14;;;;;;;;;2.33;2.33;;;;;22.66;57.97;100681.28;5069344;27;45377;-50
2021/06/28 04:02:41;;;;;;;;;1.33;1.33;;;;;22.66;58.37;100700.22;5074566;27;45541;-50
2021/06/28 04:05:08;;;;;;;;;3.00;1.00;;;;;22.64;58.29;100698.63;5074434;27;48202;-50
2021/06/28 04:07:34;;;;;;;;;2.00;1.00;;;;;22.61;58.56;100688.84;5067319;27;45731;-52
2021/06/28 04:09:59;;;;;;;;;2.33;2.33;;;;;22.59;58.06;100691.69;5066910;28;46041;-53
2021/06/28 04:12:25;;;;;;;;;1.00;1.00;;;;;22.59;58.37;100701.63;5078048;28;45308;-51
2021/06/28 04:14:51;;;;;;;;;1.00;1.00;;;;;22.58;58.46;100710.72;5073902;27;46714;-51
2021/06/28 04:17:16;;;;;;;;;1.00;1.00;;;;;22.57;58.21;100695.47;5067346;27;45398;-51
2021/06/28 04:19:42;;;;;;;;;2.00;2.00;;;;;22.55;58.47;100702.84;5082092;27;45465;-52
2021/06/28 04:22:07;;;;;;;;;2.00;2.00;;;;;22.54;58.10;100699.28;5094432;27;45483;-51
2021/06/28 04:24:33;;;;;;;;;2.00;2.00;;;;;22.54;58.46;100690.28;5066688;28;48202;-52
2021/06/28 04:26:58;;;;;;;;;1.67;1.67;;;;;22.50;58.69;100708.59;5092713;27;45333;-52
2021/06/28 04:29:24;;;;;;;;;1.67;1.67;;;;;22.50;58.16;100697.78;5060361;28;45466;-52
2021/06/28 04:31:51;;;;;;;;;1.00;1.00;;;;;22.46;58.57;100704.34;5059962;28;46663;-51
2021/06/28 04:34:16;;;;;;;;;1.00;1.00;;;;;22.46;58.89;100707.06;5066768;27;47143;-50
2021/06/28 04:36:42;;;;;;;;;1.00;1.00;;;;;22.49;59.04;100700.59;5077388;28;45735;-48
2021/06/28 04:39:07;;;;;;;;;2.33;2.33;;;;;22.49;58.74;100712.28;5080121;27;45392;-50
2021/06/28 04:41:33;;;;;;;;;2.00;2.00;;;;;22.51;58.88;100713.03;5076171;27;45752;-53
2021/06/28 04:43:59;;;;;;;;;1.67;1.67;;;;;22.51;58.71;100701.34;5065018;28;48505;-50
2021/06/28 04:46:24;;;;;;;;;1.00;1.00;;;;;22.51;58.34;100715.72;5070103;27;45304;-48
2021/06/28 04:48:50;;;;;;;;;3.00;1.67;;;;;22.53;58.54;100712.91;5077372;27;45641;-48
2021/06/28 04:51:15;;;;;;;;;2.00;2.00;;;;;22.54;58.63;100711.94;5061176;28;45353;-51
2021/06/28 04:53:41;;;;;;;;;3.00;1.33;;;;;22.56;58.71;100727.06;5063755;28;48315;-49
2021/06/28 04:56:06;;;;;;;;;2.00;2.00;;;;;22.58;58.86;100733.22;5076748;28;46147;-49
2021/06/28 04:58:32;;;;;;;;;2.33;2.00;;;;;22.58;58.53;100735.06;5074163;27;47881;-49
2021/06/28 05:00:58;;;;;;;;;3.00;3.00;;;;;22.59;58.51;100739.50;5068628;27;45821;-51
2021/06/28 05:03:24;;;;;;;;;3.33;2.00;;;;;22.59;58.89;100731.38;5076163;27;47346;-52
2021/06/28 05:05:49;;;;;;;;;2.00;2.00;;;;;22.58;59.09;100744.03;5077436;28;45623;-47
2021/06/28 05:08:15;;;;;;;;;2.00;2.00;;;;;22.61;58.66;100751.97;5076747;28;45575;-48
2021/06/28 05:10:40;;;;;;;;;3.00;2.00;;;;;22.64;58.98;100737.34;5078089;28;45454;-52
2021/06/28 05:13:08;;;;;;;;;1.67;1.67;;;;;22.66;58.68;100750.75;5076174;28;48347;-50
2021/06/28 05:15:34;;;;;;;;;2.67;2.67;;;;;22.63;58.49;100745.56;5074730;27;46279;-51
2021/06/28 05:17:59;;;;;;;;;2.00;2.00;;;;;22.60;58.34;100741.22;5079656;27;45407;-51
2021/06/28 05:20:25;;;;;;;;;1.00;1.00;;;;;22.57;58.30;100755.84;5092965;27;45552;-48
2021/06/28 05:22:50;;;;;;;;;2.00;2.00;;;;;22.56;58.61;100759.53;5078075;27;47126;-49
2021/06/28 05:25:16;;;;;;;;;3.67;3.67;;;;;22.55;58.94;100744.28;5074312;27;45565;-48
2021/06/28 05:27:42;;;;;;;;;4.33;4.33;;;;;22.53;58.60;100754.34;5081892;27;45249;-46
2021/06/28 05:30:10;;;;;;;;;1.00;1.00;;;;;22.50;58.50;100742.88;5065308;27;45694;-48
2021/06/28 05:32:36;;;;;;;;;3.00;3.00;;;;;22.49;58.95;100747.44;5066991;27;47257;-49
2021/06/28 05:35:03;;;;;;;;;2.00;2.00;;;;;22.50;58.73;100753.69;5069422;27;45498;-51
2021/06/28 05:37:29;;;;;;;;;2.33;2.33;;;;;22.51;58.79;100755.44;5074776;27;45619;-51
2021/06/28 05:39:54;;;;;;;;;2.00;2.00;;;;;22.52;59.10;100765.28;5074210;27;45571;-50
2021/06/28 05:42:20;;;;;;;;;4.00;4.00;;;;;22.51;58.76;100761.69;5088655;27;46020;-50
2021/06/28 05:44:46;;;;;;;;;2.33;2.33;;;;;22.51;58.33;100744.59;5090032;27;45424;-50
2021/06/28 05:47:12;;;;;;;;;4.00;4.00;;;;;22.48;58.90;100751.06;5077984;27;45603;-48
2021/06/28 05:49:38;;;;;;;;;3.00;3.00;;;;;22.48;58.88;100742.09;5072783;27;45295;-50
2021/06/28 05:52:05;;;;;;;;;1.33;1.00;;;;;22.47;59.34;100729.56;5074697;27;48190;-52
2021/06/28 05:54:31;;;;;;;;;3.33;3.00;;;;;22.46;59.35;100717.88;5091579;27;45365;-50
2021/06/28 05:56:56;;;;;;;;;2.00;2.00;;;;;22.48;59.32;100723.16;5093521;27;45518;-48
2021/06/28 05:59:21;;;;;;;;;2.67;2.67;;;;;22.47;59.16;100716.91;5076206;28;45372;-48
2021/06/28 06:01:47;;;;;;;;;4.00;4.00;;;;;22.48;59.02;100715.91;5074195;27;46355;-49
2021/06/28 06:04:14;;;;;;;;;7.33;7.33;;;;;22.48;59.40;100715.91;5076216;28;45914;-49
2021/06/28 06:06:41;;;;;;;;;2.33;2.33;;;;;22.47;58.68;100713.31;5074662;27;45430;-48
2021/06/28 06:09:07;;;;;;;;;4.00;4.00;;;;;22.46;58.77;100714.31;5091230;27;45618;-47
2021/06/28 06:11:33;;;;;;;;;4.33;3.00;;;;;22.45;58.70;100713.44;5061385;27;46689;-49
2021/06/28 06:13:59;;;;;;;;;3.00;3.00;;;;;22.44;59.16;100725.22;5082247;27;46292;-48
2021/06/28 06:16:24;;;;;;;;;3.33;3.33;;;;;22.42;59.21;100729.03;5069970;27;45945;-47
2021/06/28 06:18:52;;;;;;;;;3.00;3.00;;;;;22.43;59.34;100737.03;5076651;27;45756;-49
2021/06/28 06:21:20;;;;;;;;;3.00;3.00;;;;;22.46;59.39;100742.22;5078983;27;47245;-48
2021/06/28 06:23:45;;;;;;;;;3.00;3.00;;;;;22.47;58.61;100740.38;5079107;27;45408;-48
2021/06/28 06:26:11;;;;;;;;;4.00;4.00;;;;;22.43;58.87;100744.28;5091745;27;45449;-46
2021/06/28 06:28:36;;;;;;;;;6.33;6.33;;;;;22.41;59.19;100763.31;5079914;27;45450;-48
2021/06/28 06:31:02;;;;;;;;;3.33;3.33;;;;;22.43;59.30;100765.91;5079491;27;47294;-50
2021/06/28 06:33:28;;;;;;;;;4.00;4.00;;;;;22.45;59.38;100778.34;5079286;27;45824;-51
2021/06/28 06:35:53;;;;;;;;;6.00;5.00;;;;;22.46;59.40;100787.31;5077081;27;45584;-50
2021/06/28 06:38:19;;;;;;;;;3.00;3.00;;;;;22.46;58.88;100787.31;5078873;27;45435;-47
2021/06/28 06:40:48;;;;;;;;;3.00;3.00;;;;;22.48;59.33;100786.22;5070583;28;45366;-51
2021/06/28 06:43:13;;;;;;;;;3.00;3.00;;;;;22.49;59.39;100789.84;5077888;27;45701;-51
2021/06/28 06:45:39;;;;;;;;;4.00;4.00;;;;;22.49;59.31;100781.72;5079525;27;45869;-47
2021/06/28 06:48:05;;;;;;;;;3.33;3.33;;;;;22.53;59.27;100777.81;5071292;27;45357;-49
2021/06/28 06:50:30;;;;;;;;;4.00;3.67;;;;;22.53;58.76;100777.81;5075930;28;47478;-49
2021/06/28 06:52:56;;;;;;;;;3.00;3.00;;;;;22.54;58.98;100784.94;5090959;27;45695;-49
2021/06/28 06:55:22;;;;;;;;;3.00;3.00;;;;;22.56;59.10;100783.88;5071949;27;45340;-50
2021/06/28 06:57:48;;;;;;;;;4.00;4.00;;;;;22.60;58.91;100779.09;5059423;28;45432;-49
2021/06/28 07:00:17;;;;;;;;;2.67;2.00;;;;;22.63;58.98;100787.00;5058887;28;48375;-49
2021/06/28 07:02:43;;;;;;;;;3.00;3.00;;;;;22.67;59.36;100790.38;5097195;27;45456;-50
2021/06/28 07:05:09;;;;;;;;;3.00;3.00;;;;;22.71;58.99;100787.31;5078751;27;45489;-51
2021/06/28 07:07:36;;;;;;;;;4.67;4.00;;;;;22.73;58.32;100785.38;5078581;27;45578;-50
2021/06/28 07:10:05;;;;;;;;;3.33;3.00;;;;;22.75;58.68;100786.16;5077154;28;46344;-50
2021/06/28 07:12:31;;;;;;;;;6.00;6.00;;;;;22.81;58.57;100776.72;5077104;27;45916;-48
2021/06/28 07:14:56;;;;;;;;;3.67;3.67;;;;;22.87;58.63;100781.72;5078106;27;45573;-48
2021/06/28 07:17:22;;;;;;;;;3.00;3.00;;;;;22.93;58.45;100789.41;5095120;27;45469;-47
2021/06/28 07:19:47;;;;;;;;;4.00;4.00;;;;;23.00;58.37;100792.53;5079055;27;46908;-47
2021/06/28 07:22:13;;;;;;;;;4.67;4.00;;;;;23.05;58.41;100793.06;5079031;27;45362;-51
2021/06/28 07:24:38;;;;;;;;;5.33;5.33;;;;;23.07;57.79;100789.25;5078477;27;45400;-49
2021/06/28 07:27:04;;;;;;;;;3.33;3.33;;;;;23.07;57.68;100799.22;5072983;27;45523;-49
2021/06/28 07:29:29;;;;;;;;;4.00;4.00;;;;;23.05;57.56;100793.91;5067759;27;47346;-48
2021/06/28 07:31:55;;;;;;;;;4.33;3.67;;;;;23.05;57.90;100795.75;5065089;27;45325;-51
2021/06/28 07:34:20;;;;;;;;;4.67;4.33;;;;;23.04;57.82;100794.91;5078203;27;45351;-48
2021/06/28 07:36:46;;;;;;;;;3.67;2.67;;;;;23.03;57.42;100800.44;5067399;27;46670;-52
2021/06/28 07:39:11;;;;;;;;;4.67;4.00;;;;;23.00;57.55;100796.13;5078197;27;48234;-51
2021/06/28 07:41:37;;;;;;;;;5.00;5.00;;;;;22.96;57.51;100805.41;5078221;27;45538;-47
2021/06/28 07:44:06;;;;;;;;;4.33;4.33;;;;;22.94;57.63;100803.78;5072993;27;45387;-49
2021/06/28 07:46:32;;;;;;;;;3.00;3.00;;;;;22.92;57.85;100806.59;5069910;27;45580;-48
2021/06/28 07:48:57;;;;;;;;;3.33;3.33;;;;;22.93;58.00;100802.94;5084121;27;47140;-49
2021/06/28 07:51:23;;;;;;;;;4.67;4.67;;;;;22.95;57.46;100814.50;5076568;28;45740;-50
2021/06/28 07:53:49;;;;;;;;;5.67;5.67;;;;;22.95;57.46;100811.78;5075614;27;45365;-50
2021/06/28 07:56:16;;;;;;;;;5.00;5.00;;;;;22.96;57.70;100818.06;5058762;27;45543;-52
2021/06/28 07:58:42;;;;;;;;;5.33;5.33;;;;;23.02;57.45;100818.50;5063130;28;48012;-49
2021/06/28 08:01:08;;;;;;;;;6.33;5.33;;;;;;;;5065483;27;45916;-50
2021/06/28 08:03:34;;;;;;;;;5.00;5.00;;;;;23.17;57.56;100816.53;5073486;27;45581;-47
2021/06/28 08:05:59;;;;;;;;;5.00;3.67;;;;;23.27;57.05;100812.19;5069285;27;45718;-46
2021/06/28 08:08:25;;;;;;;;;3.00;3.00;;;;;23.32;56.85;100809.13;5080756;27;47155;-49
2021/06/28 08:10:50;;;;;;;;;4.00;2.67;;;;;23.34;56.33;100812.59;5080449;27;47417;-49
2021/06/28 08:13:16;;;;;;;;;3.00;3.00;;;;;23.33;56.01;100805.44;5080315;28;45496;-46
2021/06/28 08:15:41;;;;;;;;;3.00;3.00;;;;;23.34;56.00;100809.88;5081826;27;45499;-51
2021/06/28 08:18:07;;;;;;;;;1.67;1.67;;;;;23.42;55.93;100808.34;5076948;27;47375;-50
2021/06/28 08:20:34;;;;;;;;;1.33;1.33;;;;;23.53;56.05;100802.13;5080695;27;46201;-50
2021/06/28 08:23:00;;;;;;;;;3.00;3.00;;;;;23.66;55.88;100805.69;5081040;27;45272;-50
2021/06/28 08:25:26;;;;;;;;;2.33;2.33;;;;;23.80;56.06;100799.22;5081394;27;45424;-51
2021/06/28 08:27:51;;;;;;;;;1.00;1.00;;;;;23.90;55.32;100800.28;5081065;27;45449;-49
2021/06/28 08:30:18;;;;;;;;;2.33;2.33;;;;;23.96;54.66;100796.22;5080982;27;45393;-50
2021/06/28 08:32:43;;;;;;;;;3.33;3.33;;;;;23.94;54.50;100795.47;5079452;28;45413;-50
2021/06/28 08:35:10;;;;;;;;;3.75;3.00;;;;;23.92;54.40;100789.31;5072565;27;45579;-51
2021/06/28 08:37:35;;;;;;;;;2.33;2.00;;;;;23.93;54.74;100796.44;5080021;27;48164;-50
2021/06/28 08:40:01;;;;;;;;;3.67;3.67;;;;;23.92;54.86;100795.59;5080573;27;45400;-50
2021/06/28 08:42:26;;;;;;;;;2.67;2.67;;;;;23.96;54.54;100802.50;5096580;27;45423;-51
2021/06/28 08:44:53;;;;;;;;;2.00;2.00;;;;;24.07;54.19;100802.53;5080064;27;45294;-49
2021/06/28 08:47:18;;;;;;;;;2.00;2.00;;;;;24.18;53.81;100793.59;5079219;27;48069;-51
2021/06/28 08:49:45;;;;;;;;;1.33;1.33;;;;;24.27;53.47;100801.03;5068454;28;45424;-50
2021/06/28 08:52:10;;;;;;;;;2.33;2.33;;;;;24.35;53.08;100790.44;5073535;28;45389;-50
2021/06/28 08:54:36;;;;;;;;;2.00;2.00;;;;;24.44;52.38;100798.88;5080708;28;45602;-51
2021/06/28 08:57:02;;;;;;;;;2.00;2.00;;;;;24.50;52.54;100793.81;5092927;27;47717;-49
2021/06/28 08:59:27;;;;;;;;;2.00;1.67;;;;;24.60;52.26;100797.53;5069307;27;45322;-48
2021/06/28 09:01:53;;;;;;;;;2.33;2.33;;;;;24.68;51.93;100793.34;5097191;27;45438;-49
2021/06/28 09:04:21;;;;;;;;;3.33;3.33;;;;;24.68;51.67;100804.22;5069039;28;45785;-50
2021/06/28 09:06:46;;;;;;;;;4.00;4.00;;;;;24.62;51.73;100798.25;5079974;27;47609;-50
2021/06/28 09:09:14;;;;;;;;;2.00;2.00;;;;;24.60;51.84;100794.81;5072940;28;45817;-47
2021/06/28 09:11:45;;;;;;;;;3.67;3.00;;;;;24.56;51.92;100801.47;5078945;27;45445;-52
2021/06/28 09:14:12;;;;;;;;;3.00;3.00;;;;;24.54;52.20;100799.88;5092701;27;45322;-49
2021/06/28 09:16:40;;;;;;;;;2.67;2.67;;;;;24.48;52.09;100803.91;5079748;27;47437;-51
2021/06/28 09:19:10;;;;;;;;;3.00;3.00;;;;;24.46;52.25;100805.88;5079530;27;45623;-46
2021/06/28 09:21:40;;;;;;;;;2.67;2.67;;;;;24.45;52.39;100800.59;5078201;28;45400;-48
2021/06/28 09:24:31;;;;;;;;;7.00;7.00;;;;;24.48;52.63;100814.78;5078655;28;45437;-51
2021/06/28 09:27:17;;;;;;;;;3.00;3.00;;;;;24.51;52.04;100821.81;5073071;28;47114;-52
2021/06/28 09:29:48;;;;;;;;;3.33;2.67;;;;;24.52;52.45;100823.53;5095809;27;45483;-49
2021/06/28 09:32:19;;;;;;;;;3.00;3.00;;;;;24.57;52.07;100826.75;5079491;27;45369;-52
2021/06/28 09:34:46;;;;;;;;;2.33;2.33;;;;;24.62;52.28;100819.13;5077060;27;45725;-47
2021/06/28 09:37:24;;;;;;;;;4.00;4.00;;;;;24.74;51.65;100817.28;5075695;27;48505;-47
2021/06/28 09:39:55;;;;;;;;;3.00;3.00;;;;;24.82;51.37;100820.25;5074887;27;45428;-49
2021/06/28 09:42:24;;;;;;;;;1.67;1.67;;;;;24.88;51.30;100825.19;5077800;27;45453;-48
2021/06/28 09:45:15;;;;;;;;;1.00;1.00;;;;;24.93;50.74;100832.00;5059778;28;45507;-51
2021/06/28 09:47:40;;;;;;;;;3.67;2.00;;;;;24.96;50.67;100833.59;5075243;27;48244;-50
2021/06/28 09:50:19;;;;;;;;;2.67;2.67;;;;;24.98;50.80;100831.63;5069244;27;45917;-50
2021/06/28 09:52:54;;;;;;;;;3.00;2.00;;;;;25.00;50.26;100835.06;5063127;28;45460;-52
2021/06/28 09:55:36;;;;;;;;;4.00;2.67;;;;;24.98;50.16;100837.03;5059629;28;45705;-51
2021/06/28 09:58:21;;;;;;;;;2.00;2.00;;;;;24.95;50.53;100837.28;5054143;27;47415;-48
2021/06/28 10:00:54;;;;;;;;;1.67;1.67;;;;;25.02;50.34;100838.56;5066588;27;45859;-52
2021/06/28 10:03:26;;;;;;;;;5.00;5.00;;;;;25.15;50.69;100838.44;5059221;28;45463;-49
2021/06/28 10:06:00;;;;;;;;;2.00;2.00;;;;;25.23;49.96;100842.25;5076016;27;45702;-51
2021/06/28 10:08:32;;;;;;;;;2.67;2.67;;;;;25.32;49.94;100842.50;5065755;27;47573;-50
2021/06/28 10:11:18;;;;;;;;;2.00;2.00;;;;;25.37;49.43;100843.84;5072814;27;45558;-52
2021/06/28 10:13:59;;;;;;;;;2.00;2.00;;;;;25.41;49.47;100849.88;5078170;28;45390;-49
2021/06/28 10:16:28;;;;;;;;;3.00;1.67;;;;;25.46;49.32;100850.41;5081846;27;45591;-52
2021/06/28 10:18:55;;;;;;;;;1.33;1.33;;;;;25.57;49.38;100847.66;5061297;28;48507;-52
2021/06/28 10:21:21;;;;;;;;;1.00;1.00;;;;;25.68;49.48;100842.22;5078901;27;45420;-51
2021/06/28 10:23:47;;;;;;;;;1.33;1.33;;;;;25.83;48.76;100840.09;5076215;27;45441;-51
2021/06/28 10:26:13;;;;;;;;;2.00;2.00;;;;;25.95;48.89;100849.09;5076623;27;45598;-48
2021/06/28 10:28:40;;;;;;;;;1.33;0.67;;;;;26.02;47.93;100845.69;5076286;28;47100;-50
2021/06/28 10:31:07;;;;;;;;;2.00;1.67;;;;;26.04;47.56;100841.03;5071284;27;45505;-51
2021/06/28 10:33:35;;;;;;;;;1.00;1.00;;;;;26.09;47.48;100846.94;5073784;28;45864;-50
2021/06/28 10:36:07;;;;;;;;;1.00;1.00;;;;;26.16;47.02;100855.41;5063735;28;45508;-52
2021/06/28 10:38:45;;;;;;;;;0.67;0.67;;;;;26.22;46.86;100848.59;5077582;27;48529;-48
2021/06/28 10:41:11;;;;;;;;;2.00;2.00;;;;;26.29;46.39;100836.19;5077332;27;45343;-48
2021/06/28 10:43:38;;;;;;;;;1.33;1.33;;;;;26.31;47.00;100831.50;5079300;27;45575;-50
2021/06/28 10:46:06;;;;;;;;;1.33;1.33;;;;;26.27;46.63;100832.75;5080914;27;45584;-50
2021/06/28 10:48:45;;;;;;;;;2.00;2.00;;;;;26.31;46.72;100835.09;5077100;27;47104;-48
2021/06/28 10:51:11;;;;;;;;;1.00;1.00;;;;;26.37;46.70;100831.84;5066195;28;46102;-51
2021/06/28 10:53:36;;;;;;;;;2.00;2.00;;;;;26.38;46.63;100827.28;5063340;27;45662;-50
2021/06/28 10:59:14;;;;;;;;;2.00;2.00;;;;;26.43;46.40;100830.47;5076786;28;47237;-50
2021/06/28 11:01:43;;;;;;;;;2.00;1.00;;;;;26.40;45.69;100834.31;5058463;27;45829;-49
2021/06/28 11:04:13;;;;;;;;;2.00;2.00;;;;;26.35;46.23;100819.34;5076777;27;45858;-50
2021/06/28 11:07:00;;;;;;;;;1.00;1.00;;;;;26.29;46.08;100822.59;5066379;28;45563;-51
2021/06/28 11:09:39;;;;;;;;;3.00;3.00;;;;;26.25;46.41;100815.69;5064673;28;47321;-50
2021/06/28 11:12:23;;;;;;;;;2.33;2.00;;;;;26.28;46.22;100813.56;5060403;27;45744;-51
2021/06/28 11:14:55;;;;;;;;;2.67;2.67;;;;;26.36;46.23;100812.94;5071746;27;45466;-51
2021/06/28 11:17:25;;;;;;;;;3.00;2.33;;;;;26.45;46.46;100812.16;5069851;27;46176;-51
2021/06/28 11:19:58;;;;;;;;;2.00;2.00;;;;;26.51;45.81;100817.06;5073948;27;47857;-49
2021/06/28 11:22:36;;;;;;;;;2.00;2.00;;;;;26.55;46.17;100815.81;5074270;27;45719;-51
2021/06/28 11:25:07;;;;;;;;;1.33;1.33;;;;;26.61;46.20;100809.81;5071915;27;45354;-49
2021/06/28 11:28:10;;;;;;;;;2.00;2.00;;;;;26.73;45.77;100816.03;5081800;27;45596;-49
2021/06/28 11:30:51;;;;;;;;;1.00;1.00;;;;;26.79;45.23;100825.53;5059711;28;47449;-51